sensor_id;sensor_type;location;lat;lon;timestamp;temperature;humidity
12374;DHT22;6251;51.762;8.660;2022-10-14T04:06:00;12.60;99.90
12374;DHT22;6251;51.762;8.660;2022-10-14T04:16:08;12.60;99.90
12374;DHT22;6251;51.762;8.660;2022-10-14T04:26:10;12.50;99.90
12374;DHT22;6251;51.762;8.660;2022-10-14T04:36:10;12.60;99.90
12374;DHT22;6251;51.762;8.660;2022-10-14T04:46:11;12.50;99.90
12374;DHT22;6251;51.762;8.660;2022-10-14T04:56:11;12.50;99.90
12374;DHT22;6251;51.762;8.660;2022-10-14T05:06:12;12.50;99.90
12374;DHT22;6251;51.762;8.660;2022-10-14T05:16:13;12.50;99.90
12374;DHT22;6251;51.762;8.660;2022-10-14T05:26:14;12.50;99.90
12374;DHT22;6251;51.762;8.660;2022-10-14T05:36:14;12.50;99.90
12374;DHT22;6251;51.762;8.660;2022-10-14T05:46:15;12.50;99.90
12374;DHT22;6251;51.762;8.660;2022-10-14T05:56:15;12.50;99.90
12374;DHT22;6251;51.762;8.660;2022-10-14T06:06:16;12.50;99.90
12374;DHT22;6251;51.762;8.660;2022-10-14T06:16:17;12.50;99.90
12374;DHT22;6251;51.762;8.660;2022-10-14T06:26:18;12.50;99.90
12374;DHT22;6251;51.762;8.660;2022-10-14T06:36:18;12.50;99.90
12374;DHT22;6251;51.762;8.660;2022-10-14T06:46:19;12.60;99.90
12374;DHT22;6251;51.762;8.660;2022-10-14T06:56:19;12.60;99.90
12374;DHT22;6251;51.762;8.660;2022-10-14T07:06:20;12.70;99.90
12374;DHT22;6251;51.762;8.660;2022-10-14T07:16:20;12.80;99.90
12374;DHT22;6251;51.762;8.660;2022-10-14T07:26:21;12.90;99.90
12374;DHT22;6251;51.762;8.660;2022-10-14T07:36:22;13.00;99.90
12374;DHT22;6251;51.762;8.660;2022-10-14T07:46:24;13.00;99.90
12374;DHT22;6251;51.762;8.660;2022-10-14T07:56:35;13.10;99.90
12374;DHT22;6251;51.762;8.660;2022-10-14T08:06:36;13.20;99.90
12374;DHT22;6251;51.762;8.660;2022-10-14T08:16:37;13.40;99.90
12374;DHT22;6251;51.762;8.660;2022-10-14T08:26:41;13.50;99.90
12374;DHT22;6251;51.762;8.660;2022-10-14T08:36:48;13.70;99.90
12374;DHT22;6251;51.762;8.660;2022-10-14T08:56:51;14.10;99.90
12374;DHT22;6251;51.762;8.660;2022-10-14T09:06:53;14.30;99.90
12374;DHT22;6251;51.762;8.660;2022-10-14T09:17:02;14.50;99.90
12374;DHT22;6251;51.762;8.660;2022-10-14T09:27:17;14.80;99.90
12374;DHT22;6251;51.762;8.660;2022-10-14T09:37:34;14.90;99.90
12374;DHT22;6251;51.762;8.660;2022-10-14T09:47:43;14.90;99.90
12374;DHT22;6251;51.762;8.660;2022-10-14T09:57:45;15.00;99.90
12374;DHT22;6251;51.762;8.660;2022-10-14T10:08:02;15.10;99.90
12374;DHT22;6251;51.762;8.660;2022-10-14T10:18:17;15.20;99.90
12374;DHT22;6251;51.762;8.660;2022-10-14T10:28:25;15.40;99.90
12374;DHT22;6251;51.762;8.660;2022-10-14T10:59:24;15.80;99.90
12374;DHT22;6251;51.762;8.660;2022-10-14T11:09:40;15.80;99.90
12374;DHT22;6251;51.762;8.660;2022-10-14T11:20:02;15.90;99.90
12374;DHT22;6251;51.762;8.660;2022-10-14T11:30:19;16.00;99.90
12374;DHT22;6251;51.762;8.660;2022-10-14T11:40:27;16.10;99.90
12374;DHT22;6251;51.762;8.660;2022-10-14T11:50:38;16.20;99.90
12374;DHT22;6251;51.762;8.660;2022-10-14T12:00:58;16.20;99.90
12374;DHT22;6251;51.762;8.660;2022-10-14T12:11:05;16.40;99.90
12374;DHT22;6251;51.762;8.660;2022-10-14T12:31:37;16.60;99.90
12374;DHT22;6251;51.762;8.660;2022-10-14T12:41:39;16.70;99.90
12374;DHT22;6251;51.762;8.660;2022-10-14T12:52:03;16.70;99.90
12374;DHT22;6251;51.762;8.660;2022-10-14T13:02:20;16.90;99.90
12374;DHT22;6251;51.762;8.660;2022-10-14T13:32:48;17.00;99.90
12374;DHT22;6251;51.762;8.660;2022-10-14T13:43:05;16.90;99.90
12374;DHT22;6251;51.762;8.660;2022-10-14T13:53:14;16.90;99.90
12374;DHT22;6251;51.762;8.660;2022-10-14T14:03:35;16.90;99.90
12374;DHT22;6251;51.762;8.660;2022-10-14T14:23:58;16.70;99.90
12374;DHT22;6251;51.762;8.660;2022-10-14T14:33:59;16.70;99.90
12374;DHT22;6251;51.762;8.660;2022-10-14T14:44:04;16.60;99.90
12374;DHT22;6251;51.762;8.660;2022-10-14T14:54:06;16.50;99.90
12374;DHT22;6251;51.762;8.660;2022-10-14T15:04:15;16.40;99.90
12374;DHT22;6251;51.762;8.660;2022-10-14T15:14:31;16.20;99.90
12374;DHT22;6251;51.762;8.660;2022-10-14T15:24:32;16.10;99.90
12374;DHT22;6251;51.762;8.660;2022-10-14T15:34:33;15.90;99.90
12374;DHT22;6251;51.762;8.660;2022-10-14T15:44:35;15.70;99.90
12374;DHT22;6251;51.762;8.660;2022-10-14T15:54:35;15.50;99.90
12374;DHT22;6251;51.762;8.660;2022-10-14T16:04:36;15.50;99.90
12374;DHT22;6251;51.762;8.660;2022-10-14T16:14:37;15.30;99.90
12374;DHT22;6251;51.762;8.660;2022-10-14T16:24:37;15.20;99.90
12374;DHT22;6251;51.762;8.660;2022-10-14T16:34:38;15.20;99.90
12374;DHT22;6251;51.762;8.660;2022-10-14T16:44:38;15.10;99.90
12374;DHT22;6251;51.762;8.660;2022-10-14T16:54:39;15.00;99.90
12374;DHT22;6251;51.762;8.660;2022-10-14T17:04:39;14.90;99.90
12374;DHT22;6251;51.762;8.660;2022-10-14T17:14:41;14.80;99.90
12374;DHT22;6251;51.762;8.660;2022-10-14T17:24:42;14.80;99.90
12374;DHT22;6251;51.762;8.660;2022-10-14T17:34:42;14.80;99.90
12374;DHT22;6251;51.762;8.660;2022-10-14T17:44:43;14.70;99.90
12374;DHT22;6251;51.762;8.660;2022-10-14T17:54:44;14.70;99.90
12374;DHT22;6251;51.762;8.660;2022-10-14T18:04:44;14.60;99.90
12374;DHT22;6251;51.762;8.660;2022-10-14T18:14:45;14.60;99.90
12374;DHT22;6251;51.762;8.660;2022-10-14T18:24:45;14.60;99.90
12374;DHT22;6251;51.762;8.660;2022-10-14T18:34:46;14.60;99.90
12374;DHT22;6251;51.762;8.660;2022-10-14T18:44:47;14.50;99.90
12374;DHT22;6251;51.762;8.660;2022-10-14T18:54:47;14.40;99.90
12374;DHT22;6251;51.762;8.660;2022-10-14T19:04:48;14.40;99.90
12374;DHT22;6251;51.762;8.660;2022-10-14T19:14:49;14.30;99.90
12374;DHT22;6251;51.762;8.660;2022-10-14T19:24:49;14.30;99.90
12374;DHT22;6251;51.762;8.660;2022-10-14T19:34:50;14.30;99.90
12374;DHT22;6251;51.762;8.660;2022-10-14T19:44:50;14.20;99.90
12374;DHT22;6251;51.762;8.660;2022-10-14T20:06:09;14.10;99.90
12374;DHT22;6251;51.762;8.660;2022-10-14T20:16:12;14.00;99.90
12374;DHT22;6251;51.762;8.660;2022-10-14T20:26:15;13.90;99.90
12374;DHT22;6251;51.762;8.660;2022-10-14T20:36:18;13.80;99.90
12374;DHT22;6251;51.762;8.660;2022-10-14T20:46:20;13.80;99.90
12374;DHT22;6251;51.762;8.660;2022-10-14T20:56:21;13.80;99.90
12374;DHT22;6251;51.762;8.660;2022-10-14T21:06:23;13.70;99.90
